Time;durP1;ratioP1;P1;durP2;ratioP2;P2;SDS_P1;SDS_P2;PMS_P1;PMS_P2;Temp;Humidity;BMP_temperature;BMP_pressure;BME280_temperature;BME280_humidity;BME280_pressure;Samples;Min_cycle;Max_cycle;Signal;HPM_P1;HPM_P2
2023/01/30 00:01:46;;;;;;;37.63;20.88;;;6.40;99.90;;;;;;5036318;28;20209;-81
2023/01/30 00:04:12;;;;;;;38.70;22.05;;;6.50;99.90;;;;;;5072612;28;20054;-80
2023/01/30 00:06:41;;;;;;;36.42;18.90;;;6.50;99.90;;;;;;5055286;28;20094;-79
2023/01/30 00:09:12;;;;;;;41.42;21.73;;;6.50;99.90;;;;;;5091964;28;20652;-80
2023/01/30 00:11:38;;;;;;;39.42;21.15;;;6.40;99.90;;;;;;5074894;28;20401;-80
2023/01/30 00:14:04;;;;;;;38.03;21.83;;;6.50;99.90;;;;;;5076280;28;20052;-81
2023/01/30 00:16:29;;;;;;;37.45;20.27;;;6.50;99.90;;;;;;5084101;28;20052;-80
2023/01/30 00:18:55;;;;;;;32.78;18.75;;;6.50;99.90;;;;;;5064148;28;20059;-80
2023/01/30 00:21:21;;;;;;;36.45;20.38;;;6.50;99.90;;;;;;5090341;28;20054;-80
2023/01/30 00:23:46;;;;;;;34.45;18.45;;;6.50;99.90;;;;;;5057438;28;20136;-81
2023/01/30 00:26:12;;;;;;;34.40;19.00;;;6.50;99.90;;;;;;5075979;28;20088;-80
2023/01/30 00:28:38;;;;;;;34.70;18.92;;;6.60;99.90;;;;;;5069332;28;20091;-80
2023/01/30 00:31:04;;;;;;;32.15;18.08;;;6.60;99.90;;;;;;5071158;27;20144;-81
2023/01/30 00:33:30;;;;;;;35.13;20.15;;;6.60;99.90;;;;;;5084090;28;20044;-80
2023/01/30 00:35:56;;;;;;;30.95;17.17;;;6.60;99.90;;;;;;5087813;28;20088;-80
2023/01/30 00:38:23;;;;;;;25.55;15.43;;;6.70;99.90;;;;;;5050982;28;20127;-80
2023/01/30 00:40:49;;;;;;;31.05;15.50;;;6.70;99.90;;;;;;5063887;28;20090;-81
2023/01/30 00:49:09;;;;;;;28.58;15.90;;;6.80;99.90;;;;;;5052651;28;20508;-81
2023/01/30 00:51:35;;;;;;;26.63;15.05;;;6.90;99.90;;;;;;5061236;28;20047;-85
2023/01/30 00:54:01;;;;;;;28.48;14.95;;;6.80;99.90;;;;;;5069228;28;20550;-80
2023/01/30 00:56:26;;;;;;;26.83;15.38;;;6.80;99.90;;;;;;5049656;28;20046;-82
2023/01/30 00:58:52;;;;;;;30.27;15.63;;;6.80;99.90;;;;;;5038648;28;20047;-80
2023/01/30 01:01:18;;;;;;;24.27;12.30;;;6.80;99.90;;;;;;5063020;28;20508;-80
2023/01/30 01:03:43;;;;;;;23.10;13.60;;;6.80;99.90;;;;;;5083058;28;20087;-81
2023/01/30 01:06:09;;;;;;;24.85;12.55;;;6.70;99.90;;;;;;5066781;28;20131;-82
2023/01/30 01:08:35;;;;;;;28.13;13.10;;;6.70;99.90;;;;;;5085665;28;20126;-81
2023/01/30 01:11:00;;;;;;;27.95;11.82;;;6.70;99.90;;;;;;5053708;28;20056;-80
2023/01/30 01:13:26;;;;;;;29.40;12.60;;;6.60;99.90;;;;;;5071973;28;20143;-81
2023/01/30 01:15:52;;;;;;;33.38;13.73;;;6.60;99.90;;;;;;5051054;28;20099;-82
2023/01/30 01:18:17;;;;;;;26.95;12.40;;;6.50;99.90;;;;;;5041746;28;20039;-81
2023/01/30 01:20:43;;;;;;;25.50;11.57;;;6.50;99.90;;;;;;5081313;28;20049;-80
2023/01/30 01:23:10;;;;;;;29.10;12.63;;;6.50;99.90;;;;;;5072117;28;20048;-84
2023/01/30 01:25:36;;;;;;;27.98;11.48;;;6.50;99.90;;;;;;5075660;28;20051;-83
2023/01/30 01:28:01;;;;;;;26.15;11.70;;;6.50;99.90;;;;;;5035808;28;20236;-82
2023/01/30 01:30:27;;;;;;;25.90;11.63;;;6.50;99.90;;;;;;5064577;28;20047;-81
2023/01/30 01:32:53;;;;;;;26.98;12.10;;;6.50;99.90;;;;;;5036015;28;20105;-82
2023/01/30 01:35:18;;;;;;;21.63;9.93;;;6.50;99.90;;;;;;5065216;28;20044;-81
2023/01/30 01:37:45;;;;;;;31.08;11.57;;;6.40;99.90;;;;;;5025231;28;20045;-83
2023/01/30 01:43:13;;;;;;;18.98;9.05;;;6.40;99.90;;;;;;5092992;28;20059;-81
2023/01/30 01:45:38;;;;;;;20.35;9.60;;;6.50;99.90;;;;;;5083916;28;20048;-81
2023/01/30 01:48:30;;;;;;;20.05;8.23;;;6.40;99.90;;;;;;5083511;28;20201;-81
2023/01/30 01:51:01;;;;;;;21.23;9.55;;;6.40;99.90;;;;;;5082797;28;20056;-81
2023/01/30 01:53:38;;;;;;;18.08;7.65;;;6.50;98.70;;;;;;5061828;28;20097;-80
2023/01/30 01:56:06;;;;;;;17.70;8.55;;;6.50;99.90;;;;;;5070318;28;20032;-81
2023/01/30 01:58:38;;;;;;;14.18;7.40;;;6.50;99.90;;;;;;5057144;28;20051;-82
2023/01/30 02:01:05;;;;;;;14.48;7.65;;;6.40;99.90;;;;;;5074139;28;20051;-81
2023/01/30 02:03:36;;;;;;;11.18;5.22;;;6.50;99.90;;;;;;5072616;28;20040;-81
2023/01/30 02:06:03;;;;;;;17.05;6.70;;;6.50;99.90;;;;;;5078298;28;20092;-81
2023/01/30 02:08:36;;;;;;;11.73;5.60;;;6.50;99.90;;;;;;5072130;28;20087;-81
2023/01/30 02:11:28;;;;;;;12.77;6.20;;;6.50;99.90;;;;;;5075618;28;20134;-82
2023/01/30 02:13:55;;;;;;;11.48;5.60;;;6.50;99.90;;;;;;5081405;28;20083;-82
2023/01/30 02:16:21;;;;;;;22.30;7.25;;;6.50;99.90;;;;;;5047188;28;20043;-81
2023/01/30 02:18:48;;;;;;;17.77;6.85;;;6.50;99.90;;;;;;5083148;28;20047;-86
2023/01/30 02:21:41;;;;;;;13.23;6.25;;;6.50;99.90;;;;;;5069553;28;20063;-82
2023/01/30 02:24:25;;;;;;;14.63;7.28;;;6.50;99.90;;;;;;5066340;28;20122;-83
2023/01/30 02:27:11;;;;;;;12.73;6.15;;;6.60;99.90;;;;;;5077052;28;20067;-81
2023/01/30 02:30:11;;;;;;;18.20;8.00;;;6.60;99.90;;;;;;5061968;28;20138;-81
2023/01/30 02:32:56;;;;;;;15.07;6.63;;;6.60;99.90;;;;;;5071958;28;20059;-80
2023/01/30 02:35:37;;;;;;;18.25;7.43;;;6.60;99.90;;;;;;5072780;28;20123;-81
2023/01/30 02:38:25;;;;;;;13.25;6.10;;;6.60;99.90;;;;;;5059395;28;20048;-81
2023/01/30 02:41:01;;;;;;;23.67;7.63;;;6.60;99.90;;;;;;5074171;28;20048;-84
2023/01/30 02:43:45;;;;;;;23.83;8.30;;;6.60;99.90;;;;;;5089105;28;20179;-82
2023/01/30 02:46:28;;;;;;;17.60;6.75;;;6.60;99.90;;;;;;5063925;28;20100;-81
2023/01/30 02:48:57;;;;;;;19.50;6.78;;;6.60;99.90;;;;;;5058323;28;20102;-81
2023/01/30 02:51:28;;;;;;;24.23;8.45;;;6.60;99.90;;;;;;5075695;28;20047;-81
2023/01/30 02:53:54;;;;;;;27.48;9.38;;;6.60;99.90;;;;;;5072373;28;20048;-82
2023/01/30 02:56:20;;;;;;;20.17;8.32;;;6.70;99.90;;;;;;5043866;28;20047;-81
2023/01/30 02:58:55;;;;;;;25.15;8.45;;;6.70;99.90;;;;;;5081540;28;20048;-82
2023/01/30 03:01:56;;;;;;;23.27;7.68;;;6.70;99.90;;;;;;5078817;28;20036;-82
2023/01/30 03:04:40;;;;;;;29.63;8.88;;;6.70;99.90;;;;;;4987696;28;20066;-81
2023/01/30 03:07:38;;;;;;;21.80;7.97;;;6.70;99.90;;;;;;5062313;28;20051;-83
2023/01/30 03:10:27;;;;;;;34.95;8.77;;;6.70;99.90;;;;;;5062333;28;20096;-82
2023/01/30 03:13:15;;;;;;;26.17;8.48;;;6.70;99.90;;;;;;5063385;28;20059;-82
2023/01/30 03:15:49;;;;;;;29.17;8.32;;;6.80;99.90;;;;;;5071332;28;20112;-82
2023/01/30 03:18:19;;;;;;;28.23;8.38;;;6.80;99.90;;;;;;5082923;28;20233;-81
2023/01/30 03:20:45;;;;;;;27.85;9.02;;;6.70;99.90;;;;;;5083297;28;20481;-81
2023/01/30 03:23:12;;;;;;;30.52;8.95;;;6.80;99.90;;;;;;5039468;28;20047;-82
2023/01/30 03:25:41;;;;;;;43.72;9.48;;;6.70;99.90;;;;;;5046465;28;20043;-82
2023/01/30 03:28:08;;;;;;;36.67;8.48;;;6.70;99.90;;;;;;5076204;28;20047;-82
2023/01/30 03:30:34;;;;;;;26.48;7.88;;;6.70;99.90;;;;;;5071534;28;20083;-81
2023/01/30 03:33:00;;;;;;;25.38;7.00;;;6.70;99.90;;;;;;5083789;28;20493;-81
2023/01/30 03:35:25;;;;;;;35.67;9.55;;;6.60;99.90;;;;;;5077280;28;20051;-81
2023/01/30 03:37:52;;;;;;;28.75;7.45;;;6.70;99.90;;;;;;5058386;28;20085;-81
2023/01/30 03:40:18;;;;;;;29.10;7.80;;;6.60;99.90;;;;;;5077943;28;20255;-81
2023/01/30 03:42:43;;;;;;;24.55;6.80;;;6.60;99.90;;;;;;5048895;28;20555;-81
2023/01/30 03:45:10;;;;;;;22.15;6.47;;;6.50;99.90;;;;;;5060322;28;20519;-81
2023/01/30 03:47:36;;;;;;;29.45;6.30;;;6.50;99.90;;;;;;5084085;28;20048;-83
2023/01/30 03:50:02;;;;;;;36.20;7.05;;;6.50;99.90;;;;;;5066532;28;20048;-81
2023/01/30 03:52:28;;;;;;;24.98;5.57;;;6.40;99.90;;;;;;5050002;28;20059;-81
2023/01/30 03:54:53;;;;;;;25.23;6.10;;;6.40;99.90;;;;;;5061843;28;20039;-82
2023/01/30 03:57:19;;;;;;;28.55;6.55;;;6.40;99.90;;;;;;5074026;28;20051;-81
2023/01/30 03:59:45;;;;;;;37.28;6.82;;;6.30;99.90;;;;;;5074445;28;20077;-81
2023/01/30 04:02:11;;;;;;;24.95;6.20;;;6.30;99.90;;;;;;5056865;28;20185;-80
2023/01/30 04:04:36;;;;;;;30.65;7.03;;;6.30;99.90;;;;;;5095915;28;20040;-84
2023/01/30 04:07:02;;;;;;;28.52;6.80;;;6.30;99.90;;;;;;5078801;28;20108;-85
2023/01/30 04:09:31;;;;;;;28.15;6.53;;;6.20;99.90;;;;;;5083099;28;20036;-81
2023/01/30 04:11:56;;;;;;;32.55;6.80;;;6.20;99.90;;;;;;5064153;28;20406;-82
2023/01/30 04:14:22;;;;;;;28.73;6.55;;;6.10;99.90;;;;;;5064743;28;20055;-82
2023/01/30 04:16:48;;;;;;;28.17;6.60;;;6.10;99.90;;;;;;5074682;28;20058;-82
2023/01/30 04:19:13;;;;;;;26.15;6.15;;;6.00;99.90;;;;;;5069789;28;20048;-81
2023/01/30 04:21:39;;;;;;;25.40;5.25;;;6.00;99.90;;;;;;5045363;28;20080;-82
2023/01/30 04:24:05;;;;;;;24.65;5.60;;;5.90;99.90;;;;;;5088646;28;20050;-86
2023/01/30 04:26:31;;;;;;;24.65;5.28;;;5.80;99.90;;;;;;5056067;28;20123;-83
2023/01/30 04:28:56;;;;;;;30.23;5.57;;;5.80;99.90;;;;;;5059086;28;20063;-81
2023/01/30 04:31:22;;;;;;;23.42;4.85;;;5.80;99.90;;;;;;5076325;28;20193;-82
2023/01/30 04:33:48;;;;;;;32.05;5.63;;;5.80;99.90;;;;;;5071841;28;20040;-85
2023/01/30 04:36:13;;;;;;;27.70;5.93;;;5.80;99.90;;;;;;5077540;28;20043;-81
2023/01/30 04:38:39;;;;;;;29.83;6.05;;;5.80;99.90;;;;;;5075903;28;20524;-82
2023/01/30 04:41:05;;;;;;;26.58;5.22;;;5.70;99.90;;;;;;5082613;28;20117;-83
2023/01/30 04:43:31;;;;;;;29.77;5.70;;;5.70;99.90;;;;;;5061718;28;20047;-82
2023/01/30 04:45:56;;;;;;;31.65;6.88;;;5.70;99.90;;;;;;5055844;28;20506;-84
2023/01/30 04:48:24;;;;;;;30.38;5.50;;;5.60;99.90;;;;;;5077718;28;20493;-83
2023/01/30 04:50:52;;;;;;;19.40;5.00;;;5.60;99.90;;;;;;5070580;28;20048;-90
2023/01/30 04:53:19;;;;;;;25.65;4.53;;;5.50;99.90;;;;;;5061689;28;20052;-81
2023/01/30 04:55:45;;;;;;;37.00;6.63;;;5.50;99.90;;;;;;5081294;28;20543;-82
2023/01/30 04:58:11;;;;;;;28.83;4.95;;;5.50;99.90;;;;;;5061384;28;20427;-82
2023/01/30 05:00:37;;;;;;;30.27;5.13;;;5.40;99.90;;;;;;5071152;28;20303;-84
2023/01/30 05:03:03;;;;;;;27.70;4.82;;;5.40;99.90;;;;;;5077967;28;20135;-82
2023/01/30 05:05:29;;;;;;;32.88;5.53;;;5.30;99.90;;;;;;5094266;28;20139;-82
2023/01/30 05:07:54;;;;;;;30.17;6.70;;;5.20;99.90;;;;;;5077651;28;20424;-82
2023/01/30 05:10:20;;;;;;;31.67;6.88;;;5.10;99.90;;;;;;5062858;28;20089;-82
2023/01/30 05:12:46;;;;;;;24.45;4.70;;;5.30;99.90;;;;;;5045955;28;20128;-83
2023/01/30 05:15:13;;;;;;;31.42;5.65;;;5.20;99.90;;;;;;5095111;28;20071;-86
2023/01/30 05:17:39;;;;;;;28.30;6.43;;;5.20;99.90;;;;;;5082887;28;20055;-83
2023/01/30 05:20:07;;;;;;;33.35;5.18;;;5.10;99.90;;;;;;5087423;28;20097;-82
2023/01/30 05:22:33;;;;;;;24.05;4.35;;;5.10;99.90;;;;;;5077238;28;20051;-83
2023/01/30 05:24:58;;;;;;;28.58;4.82;;;5.10;99.90;;;;;;5054513;28;20050;-82
2023/01/30 05:27:24;;;;;;;33.67;5.90;;;5.00;99.90;;;;;;5079702;28;20070;-83
2023/01/30 05:29:50;;;;;;;31.60;4.78;;;5.00;99.90;;;;;;5076846;28;20040;-82
2023/01/30 05:32:18;;;;;;;34.60;6.25;;;5.00;99.90;;;;;;5058583;28;20039;-81
2023/01/30 05:34:44;;;;;;;32.63;5.55;;;5.00;99.90;;;;;;5079808;28;20040;-82
2023/01/30 05:37:10;;;;;;;28.60;6.18;;;5.00;99.90;;;;;;5061876;28;20046;-81
2023/01/30 05:39:36;;;;;;;23.90;4.20;;;5.00;99.90;;;;;;5082403;28;20116;-82
2023/01/30 05:42:03;;;;;;;32.63;5.90;;;5.00;99.90;;;;;;5065559;28;20485;-82
2023/01/30 05:44:29;;;;;;;28.70;5.25;;;5.00;99.90;;;;;;5068181;28;20066;-82
2023/01/30 05:46:54;;;;;;;21.90;3.97;;;4.90;99.90;;;;;;5076832;28;20052;-82
2023/01/30 05:49:20;;;;;;;31.73;5.72;;;4.90;99.90;;;;;;5051070;28;20040;-81
2023/01/30 05:51:46;;;;;;;31.08;4.43;;;4.90;99.90;;;;;;5088390;28;20497;-82
2023/01/30 05:54:11;;;;;;;25.38;4.38;;;4.80;99.90;;;;;;5080631;28;20040;-83
2023/01/30 05:56:37;;;;;;;27.27;4.25;;;4.90;99.90;;;;;;5084009;28;20039;-80
2023/01/30 05:59:05;;;;;;;31.30;4.93;;;4.90;99.90;;;;;;5057429;28;20051;-83
2023/01/30 06:01:31;;;;;;;32.47;6.00;;;4.90;99.90;;;;;;5074053;28;20105;-80
2023/01/30 06:04:00;;;;;;;27.75;4.75;;;4.80;99.90;;;;;;5054158;28;20051;-86
2023/01/30 06:06:26;;;;;;;34.13;4.70;;;4.80;99.90;;;;;;5065203;28;20039;-82
2023/01/30 06:08:53;;;;;;;22.17;4.07;;;4.80;99.90;;;;;;5074928;27;20481;-84
2023/01/30 06:11:19;;;;;;;35.10;4.00;;;4.80;99.90;;;;;;5088429;28;20902;-85
2023/01/30 06:13:45;;;;;;;27.63;4.82;;;4.80;99.90;;;;;;5054826;28;20138;-84
2023/01/30 06:16:15;;;;;;;32.47;5.05;;;4.80;99.90;;;;;;5056636;28;20032;-85
2023/01/30 06:18:41;;;;;;;37.60;5.53;;;4.80;99.90;;;;;;5085630;28;20072;-85
2023/01/30 06:21:07;;;;;;;30.55;4.43;;;4.80;99.90;;;;;;5081839;28;20094;-86
2023/01/30 06:23:34;;;;;;;30.25;4.60;;;4.80;99.90;;;;;;5082854;28;20044;-85
2023/01/30 06:26:00;;;;;;;43.95;5.35;;;4.90;99.90;;;;;;5083881;28;20054;-84
2023/01/30 06:28:26;;;;;;;30.88;5.00;;;5.00;99.90;;;;;;5077907;28;20055;-84
2023/01/30 06:31:02;;;;;;;22.75;4.80;;;5.10;99.90;;;;;;5088453;28;20048;-86
2023/01/30 06:34:10;;;;;;;34.17;6.10;;;5.10;99.90;;;;;;5077735;28;20051;-87
2023/01/30 06:37:06;;;;;;;;;;;;;;;;;;;;;
2023/01/30 06:39:35;;;;;;;25.85;4.88;;;5.00;99.90;;;;;;5056654;28;20060;-86
2023/01/30 06:42:03;;;;;;;29.67;4.20;;;5.00;99.90;;;;;;5082853;28;20050;-86
2023/01/30 06:45:01;;;;;;;37.10;4.07;;;5.00;99.90;;;;;;5079112;28;20148;-86
2023/01/30 06:48:12;;;;;;;28.95;3.58;;;5.00;99.90;;;;;;5066158;28;20101;-88
2023/01/30 06:51:05;;;;;;;26.38;3.22;;;4.90;99.90;;;;;;5088908;28;20047;-86
2023/01/30 06:53:57;;;;;;;20.17;3.70;;;5.00;99.90;;;;;;5063691;28;20504;-88
2023/01/30 06:56:31;;;;;;;24.15;4.55;;;5.10;99.90;;;;;;5077346;28;20031;-88
2023/01/30 06:59:48;;;;;;;32.08;4.90;;;5.10;99.90;;;;;;5049363;28;20044;-86
2023/01/30 07:02:36;;;;;;;;;;;;;;;;;;;;;
2023/01/30 07:05:37;;;;;;;27.60;4.43;;;5.20;99.90;;;;;;5068187;28;20058;-87
2023/01/30 07:08:08;;;;;;;24.30;3.88;;;5.30;99.90;;;;;;5056025;28;20048;-86
2023/01/30 07:11:07;;;;;;;;;;;;;;;;;;;;;
2023/01/30 07:13:48;;;;;;;27.95;4.65;;;5.30;99.90;;;;;;5067726;28;20055;-86
2023/01/30 07:16:48;;;;;;;26.77;3.70;;;5.30;99.90;;;;;;5042788;28;20046;-87
2023/01/30 07:19:28;;;;;;;38.95;5.32;;;5.40;99.90;;;;;;5070230;28;20781;-88
2023/01/30 07:25:06;;;;;;;28.70;3.78;;;5.40;99.90;;;;;;5079093;28;20051;-86
2023/01/30 07:27:48;;;;;;;26.98;3.83;;;5.40;99.90;;;;;;5041921;28;20067;-87
2023/01/30 07:30:53;;;;;;;;;;;;;;;;;;;;;
2023/01/30 07:36:36;;;;;;;26.05;4.22;;;5.50;99.90;;;;;;5081822;28;20490;-86
2023/01/30 07:39:24;;;;;;;23.42;3.90;;;5.50;99.90;;;;;;5046857;28;20405;-88
2023/01/30 07:42:24;;;;;;;31.05;5.13;;;5.40;99.90;;;;;;5057391;28;20083;-87
2023/01/30 07:48:05;;;;;;;27.63;4.45;;;5.50;99.90;;;;;;5064493;28;20063;-88
2023/01/30 07:51:21;;;;;;;26.10;3.67;;;5.50;99.90;;;;;;5085841;28;20037;-89
2023/01/30 08:00:19;;;;;;;;;;;;;;;;;;;;;
2023/01/30 08:02:48;;;;;;;38.97;4.57;;;5.80;99.90;;;;;;5085396;28;20056;-85
2023/01/30 08:06:07;;;;;;;;;;;;;;;;;;;;;
2023/01/30 08:08:46;;;;;;;29.05;4.03;;;5.90;99.90;;;;;;5085511;28;20043;-87
2023/01/30 08:11:54;;;;;;;21.45;4.78;;;5.90;99.90;;;;;;5041868;28;20048;-86
2023/01/30 08:17:28;;;;;;;17.98;3.72;;;6.10;99.90;;;;;;5066756;28;20052;-87
2023/01/30 08:20:04;;;;;;;28.58;4.22;;;6.10;99.90;;;;;;5060298;28;20048;-87
2023/01/30 08:22:48;;;;;;;33.00;4.72;;;6.00;99.90;;;;;;5057752;28;20105;-86
2023/01/30 08:25:46;;;;;;;32.42;4.45;;;6.00;99.90;;;;;;5042714;28;20110;-87
2023/01/30 08:28:25;;;;;;;32.45;4.28;;;6.00;99.90;;;;;;5048940;28;20072;-89
2023/01/30 08:31:16;;;;;;;26.83;4.85;;;6.00;99.90;;;;;;5056783;28;20062;-87
2023/01/30 08:34:19;;;;;;;22.33;3.83;;;6.00;99.90;;;;;;5067682;28;20063;-86
2023/01/30 08:37:20;;;;;;;27.77;4.57;;;6.10;99.90;;;;;;5064506;28;20048;-85
2023/01/30 08:39:58;;;;;;;;;;;;;;;;;;;;;
2023/01/30 08:45:55;;;;;;;29.40;4.35;;;6.20;99.90;;;;;;5072725;28;20481;-86
2023/01/30 08:49:15;;;;;;;;;;;;;;;;;;;;;
2023/01/30 08:52:30;;;;;;;23.77;3.55;;;6.30;99.90;;;;;;5080281;28;20091;-86
2023/01/30 08:55:17;;;;;;;;;;;;;;;;;;;;;
2023/01/30 08:57:53;;;;;;;28.52;4.20;;;6.30;99.90;;;;;;5076786;28;20048;-87
2023/01/30 09:00:35;;;;;;;26.58;4.47;;;6.30;99.90;;;;;;5063868;28;20044;-86
2023/01/30 09:03:11;;;;;;;;;;;6.40;99.90;;;;;;5055254;28;20519;-86
2023/01/30 09:06:04;;;;;;;23.13;4.13;;;6.40;99.90;;;;;;5084929;28;19971;-87
2023/01/30 09:08:54;;;;;;;;;;;;;;;;;;;;;
2023/01/30 09:11:59;;;;;;;24.75;3.85;;;6.30;99.90;;;;;;5072235;28;20391;-86
2023/01/30 09:14:30;;;;;;;24.83;4.18;;;6.30;99.90;;;;;;5064879;28;20143;-87
2023/01/30 09:20:45;;;;;;;;;;;;;;;;;;;;;
2023/01/30 09:23:45;;;;;;;18.70;4.63;;;6.40;99.90;;;;;;5081988;28;20075;-86
2023/01/30 09:26:29;;;;;;;24.97;5.47;;;6.50;99.90;;;;;;5072910;28;20067;-86
2023/01/30 09:28:58;;;;;;;34.25;4.90;;;6.50;99.90;;;;;;5076556;28;20059;-87
2023/01/30 09:31:56;;;;;;;26.73;4.00;;;6.60;99.90;;;;;;5091999;28;20062;-86
2023/01/30 09:34:38;;;;;;;28.92;4.63;;;6.70;99.90;;;;;;5051893;28;20105;-86
2023/01/30 09:38:08;;;;;;;25.63;2.97;;;6.80;99.90;;;;;;5075200;28;20485;-87
2023/01/30 09:43:59;;;;;;;;;;;;;;;;;;;;;
2023/01/30 09:47:08;;;;;;;;;;;;;;;;;;;;;
2023/01/30 09:50:15;;;;;;;22.05;3.55;;;7.10;99.90;;;;;;5079767;28;20045;-86
2023/01/30 09:53:00;;;;;;;25.55;3.92;;;7.10;99.90;;;;;;5076218;28;20076;-86
2023/01/30 09:56:04;;;;;;;27.48;4.85;;;7.20;99.90;;;;;;5075564;28;20044;-86
2023/01/30 09:58:49;;;;;;;45.80;6.90;;;7.30;99.90;;;;;;5064191;28;20501;-86
2023/01/30 10:01:26;;;;;;;39.10;6.85;;;6.70;99.90;;;;;;5068561;28;20083;-88
2023/01/30 10:04:54;;;;;;;;;;;;;;;;;;;;;
2023/01/30 10:07:35;;;;;;;31.00;5.72;;;5.50;99.90;;;;;;5077384;28;20059;-85
2023/01/30 10:10:34;;;;;;;31.25;5.32;;;5.40;99.90;;;;;;5064438;28;20053;-85
2023/01/30 10:13:35;;;;;;;33.58;5.53;;;5.40;99.90;;;;;;5064049;28;20044;-85
2023/01/30 10:16:32;;;;;;;44.78;7.30;;;5.40;99.90;;;;;;5022843;28;20098;-85
2023/01/30 10:23:03;;;;;;;39.88;5.80;;;5.60;99.90;;;;;;5072987;28;20055;-85
2023/01/30 10:26:21;;;;;;;;;;;;;;;;;;;;;
2023/01/30 10:29:06;;;;;;;;;;;;;;;;;;;;;
2023/01/30 10:32:28;;;;;;;40.05;6.18;;;5.70;99.90;;;;;;4985180;28;20128;-85
2023/01/30 10:35:13;;;;;;;;;;;;;;;;;;;;;
2023/01/30 10:38:17;;;;;;;38.67;6.07;;;5.70;99.90;;;;;;5086931;28;20104;-85
2023/01/30 10:40:56;;;;;;;28.95;4.90;;;5.80;99.90;;;;;;5049727;28;20059;-86
2023/01/30 10:43:26;;;;;;;33.38;5.25;;;5.80;99.90;;;;;;5055066;28;20048;-85
2023/01/30 10:46:24;;;;;;;;;;;;;;;;;;;;;
2023/01/30 10:49:16;;;;;;;32.50;4.85;;;5.70;99.90;;;;;;5076064;28;20051;-86
2023/01/30 10:52:16;;;;;;;22.98;2.83;;;5.70;99.90;;;;;;5068341;28;20052;-86
2023/01/30 10:54:55;;;;;;;22.27;3.42;;;5.50;99.90;;;;;;5062447;28;20154;-87
2023/01/30 10:57:26;;;;;;;18.67;2.55;;;5.20;99.90;;;;;;5077573;28;20044;-84
2023/01/30 11:00:01;;;;;;;26.08;3.35;;;5.00;99.90;;;;;;5069644;28;20055;-85
2023/01/30 11:02:51;;;;;;;16.38;3.00;;;4.90;99.90;;;;;;5076275;28;20056;-84
2023/01/30 11:05:40;;;;;;;23.05;3.33;;;4.80;99.90;;;;;;5082303;28;20047;-84
2023/01/30 11:08:33;;;;;;;17.92;2.25;;;4.80;99.90;;;;;;5062292;28;20059;-84
2023/01/30 11:11:28;;;;;;;30.70;3.75;;;4.80;99.90;;;;;;5086927;28;20063;-85
2023/01/30 11:14:48;;;;;;;26.67;3.15;;;4.90;99.90;;;;;;5083280;28;20044;-85
2023/01/30 11:17:29;;;;;;;17.50;3.50;;;5.00;99.90;;;;;;4996502;28;20065;-86
2023/01/30 11:20:08;;;;;;;24.83;4.03;;;5.00;99.90;;;;;;5058832;28;20074;-86
2023/01/30 11:25:56;;;;;;;22.30;2.88;;;5.20;99.90;;;;;;5044456;28;20097;-84
2023/01/30 11:28:53;;;;;;;;;;;;;;;;;;;;;
2023/01/30 11:31:27;;;;;;;;;;;5.20;99.90;;;;;;5066295;28;20638;-84
2023/01/30 11:34:29;;;;;;;20.52;2.97;;;5.40;99.90;;;;;;5055250;28;19928;-85
2023/01/30 11:37:50;;;;;;;;;;;;;;;;;;;;;
2023/01/30 11:40:40;;;;;;;;;;;;;;;;;;;;;
2023/01/30 11:43:26;;;;;;;;;;;;;;;;;;;;;
2023/01/30 11:46:27;;;;;;;28.35;3.60;;;5.90;99.90;;;;;;5058375;28;20564;-88
2023/01/30 11:49:32;;;;;;;13.50;3.38;;;5.90;99.90;;;;;;5054703;28;20551;-85
2023/01/30 11:55:15;;;;;;;20.27;3.00;;;5.90;99.90;;;;;;5074497;28;20048;-85
2023/01/30 12:01:05;;;;;;;15.80;3.20;;;5.80;99.90;;;;;;5083809;28;20054;-86
2023/01/30 12:04:19;;;;;;;15.50;2.33;;;5.60;99.90;;;;;;5054253;28;20618;-85
2023/01/30 12:07:39;;;;;;;11.57;1.60;;;5.70;99.90;;;;;;5084175;28;20048;-86
2023/01/30 12:10:46;;;;;;;6.97;1.75;;;5.80;99.90;;;;;;5086667;28;20138;-86
2023/01/30 12:14:17;;;;;;;;;;;;;;;;;;;;;
2023/01/30 12:17:49;;;;;;;;;;;;;;;;;;;;;
2023/01/30 12:24:05;;;;;;;13.93;2.28;;;6.40;99.90;;;;;;5078551;28;20047;-87
2023/01/30 12:27:25;;;;;;;13.65;2.60;;;6.30;99.90;;;;;;5076710;28;20062;-87
2023/01/30 12:30:53;;;;;;;16.15;3.22;;;6.30;99.90;;;;;;5016072;28;20100;-87
2023/01/30 12:33:59;;;;;;;12.68;1.92;;;6.30;99.90;;;;;;5011826;28;20088;-87
2023/01/30 12:36:43;;;;;;;;;;;;;;;;;;;;;
2023/01/30 12:39:57;;;;;;;;;;;;;;;;;;;;;
2023/01/30 12:42:49;;;;;;;;;;;;;;;;;;;;;
2023/01/30 12:45:49;;;;;;;;;;;;;;;;;;;;;
2023/01/30 12:52:46;;;;;;;;;;;;;;;;;;;;;
2023/01/30 12:55:40;;;;;;;21.80;4.55;;;6.60;99.90;;;;;;5105269;28;20959;-87
2023/01/30 13:02:01;;;;;;;;;;;;;;;;;;;;;
2023/01/30 13:05:09;;;;;;;22.77;3.80;;;6.80;99.90;;;;;;5082153;28;20046;-87
2023/01/30 13:08:47;;;;;;;14.63;2.67;;;6.90;99.90;;;;;;5094600;28;20056;-87
2023/01/30 13:11:47;;;;;;;25.48;4.28;;;6.90;99.90;;;;;;5015288;28;20576;-86
2023/01/30 13:14:38;;;;;;;17.13;3.03;;;6.90;99.90;;;;;;5085143;28;20050;-89
2023/01/30 13:17:42;;;;;;;21.05;3.25;;;6.80;99.90;;;;;;5077451;28;20040;-86
2023/01/30 13:23:59;;;;;;;14.15;3.20;;;6.90;99.90;;;;;;5085282;27;19919;-89
2023/01/30 13:27:18;;;;;;;22.48;4.40;;;7.20;99.90;;;;;;5088620;28;20638;-88
2023/01/30 13:29:59;;;;;;;20.02;2.25;;;7.20;99.90;;;;;;5083260;28;20047;-87
2023/01/30 13:32:55;;;;;;;;;;;;;;;;;;;;;
2023/01/30 13:36:28;;;;;;;;;;;;;;;;;;;;;
2023/01/30 13:39:57;;;;;;;18.38;3.42;;;7.40;99.90;;;;;;5085737;28;20052;-86
2023/01/30 13:46:19;;;;;;;27.42;4.47;;;7.40;99.90;;;;;;5074543;28;20059;-87
2023/01/30 13:49:29;;;;;;;;;;;;;;;;;;;;;
2023/01/30 13:52:17;;;;;;;;;;;;;;;;;;;;;
2023/01/30 13:55:13;;;;;;;29.17;4.18;;;7.30;99.90;;;;;;5081447;28;20071;-87
2023/01/30 13:58:29;;;;;;;;;;;;;;;;;;;;;
2023/01/30 14:01:26;;;;;;;30.30;5.30;;;7.30;99.90;;;;;;5050284;28;20101;-87
2023/01/30 14:04:37;;;;;;;25.17;3.95;;;7.30;99.90;;;;;;5059699;28;20054;-86
2023/01/30 14:08:08;;;;;;;;;;;;;;;;;;;;;
2023/01/30 14:11:30;;;;;;;;;;;;;;;;;;;;;
2023/01/30 14:18:29;;;;;;;33.13;5.80;;;7.40;99.90;;;;;;5053230;28;20058;-88
2023/01/30 14:21:59;;;;;;;26.80;5.22;;;7.30;99.90;;;;;;5073615;28;20047;-86
2023/01/30 14:24:45;;;;;;;21.88;4.85;;;7.30;99.90;;;;;;5081201;28;20400;-88
2023/01/30 14:27:42;;;;;;;;;;;7.30;99.90;;;;;;5073641;28;20040;-88
2023/01/30 14:30:41;;;;;;;26.02;4.32;;;7.30;99.90;;;;;;5072134;28;20353;-87
2023/01/30 14:34:19;;;;;;;;;;;;;;;;;;;;;
2023/01/30 14:47:40;;;;;;;26.02;5.30;;;7.10;99.90;;;;;;5082561;28;20059;-88
2023/01/30 14:50:37;;;;;;;29.23;5.25;;;7.20;99.90;;;;;;5086678;28;20493;-87
2023/01/30 14:53:26;;;;;;;31.50;7.00;;;7.30;99.90;;;;;;5073910;28;20047;-88
2023/01/30 15:03:11;;;;;;;;;;;7.20;99.90;;;;;;5073157;28;20047;-87
2023/01/30 15:06:08;;;;;;;26.25;3.90;;;7.20;99.90;;;;;;5067555;28;20273;-87
2023/01/30 15:12:19;;;;;;;29.00;4.55;;;7.10;99.90;;;;;;5064212;28;20132;-87
2023/01/30 15:15:38;;;;;;;;;;;;;;;;;;;;;
2023/01/30 15:18:26;;;;;;;28.55;4.30;;;7.20;99.90;;;;;;5081194;28;20043;-87
2023/01/30 15:22:06;;;;;;;30.38;5.85;;;7.10;99.90;;;;;;5074683;28;20051;-86
2023/01/30 15:25:39;;;;;;;26.92;4.53;;;7.10;99.90;;;;;;5011453;28;20053;-87
2023/01/30 15:28:58;;;;;;;;;;;;;;;;;;;;;
2023/01/30 15:31:45;;;;;;;32.05;4.70;;;7.10;99.90;;;;;;4954815;28;20105;-86
2023/01/30 15:35:29;;;;;;;26.25;4.15;;;7.20;99.90;;;;;;5004432;28;20107;-89
2023/01/30 15:38:38;;;;;;;;;;;;;;;;;;;;;
2023/01/30 15:41:46;;;;;;;25.88;5.00;;;6.60;99.90;;;;;;5088508;28;20055;-86
2023/01/30 15:48:57;;;;;;;17.98;3.47;;;6.00;99.90;;;;;;5074680;28;20117;-90
2023/01/30 15:54:50;;;;;;;20.50;5.13;;;5.40;99.90;;;;;;5070270;28;20055;-86
2023/01/30 15:58:12;;;;;;;;;;;;;;;;;;;;;
2023/01/30 16:01:14;;;;;;;;;;;;;;;;;;;;;
2023/01/30 16:03:59;;;;;;;22.13;4.95;;;5.00;99.90;;;;;;5085308;28;20482;-87
2023/01/30 16:07:02;;;;;;;;;;;;;;;;;;;;;
2023/01/30 16:10:20;;;;;;;;;;;;;;;;;;;;;
2023/01/30 16:13:19;;;;;;;28.98;5.22;;;5.00;99.90;;;;;;5089317;28;20396;-87
2023/01/30 16:16:28;;;;;;;34.03;5.15;;;5.10;99.90;;;;;;5063938;28;20044;-85
2023/01/30 16:19:28;;;;;;;29.30;4.75;;;5.10;99.90;;;;;;5077508;28;20465;-86
2023/01/30 16:22:30;;;;;;;;;;;5.20;99.90;;;;;;5088000;28;20040;-86
2023/01/30 16:25:43;;;;;;;31.95;6.13;;;5.20;99.90;;;;;;5033039;28;19924;-87
2023/01/30 16:31:18;;;;;;;26.33;5.57;;;5.20;99.90;;;;;;5053257;28;20040;-86
2023/01/30 16:34:07;;;;;;;28.42;4.63;;;5.20;99.90;;;;;;5092514;28;20040;-89
2023/01/30 16:36:50;;;;;;;30.15;5.47;;;5.20;99.90;;;;;;5093721;28;20483;-85
2023/01/30 16:39:57;;;;;;;33.85;4.40;;;5.10;99.90;;;;;;5085117;28;20063;-86
2023/01/30 16:42:38;;;;;;;;;;;;;;;;;;;;;
2023/01/30 16:45:41;;;;;;;27.15;5.20;;;5.10;99.90;;;;;;5093132;28;20044;-89
2023/01/30 16:48:56;;;;;;;;;;;;;;;;;;;;;
2023/01/30 16:51:42;;;;;;;32.05;5.72;;;5.10;99.90;;;;;;5011201;28;20053;-86
2023/01/30 16:54:27;;;;;;;30.70;7.47;;;5.00;99.90;;;;;;5086523;28;20079;-87
2023/01/30 16:57:10;;;;;;;;;;;;;;;;;;;;;
2023/01/30 16:59:46;;;;;;;28.67;5.30;;;5.00;99.90;;;;;;5092167;28;20055;-88